Metar Cercanos

 

LEPA - Palma De Mallorc, Spain
Distance from station: ONO 38km
Actualización: 24/10/2017 13:00
Few Clouds
Few Clouds
 Viento del varies
Viento: varies 2 km/h
Temperatura: 23°C
Rocío: 15°C
Humedad: 61%
Barómetro: 1024 hPa
Clouds: Few Clouds
Visibility: 10 km
Cloud details: Few Clouds 914 m
2017/10/24 11:00 LEPA 241100Z VRB01KT 9999 FEW030 23/15 Q1024 NOSIG
LEMH - Mahon/Menorca Is, Spain
Distance from station: ENE 105km
Actualización: 24/10/2017 13:00
Few Clouds
Few Clouds
 Viento del N
Viento: N 28 km/h
Temperatura: 20°C
Rocío: 12°C
Humedad: 60%
Barómetro: 1024 hPa
Clouds: Few Clouds
Visibility: 10 km
Cloud details: Few Clouds 914 m
2017/10/24 11:00 LEMH 241100Z 36015KT 330V030 9999 FEW030 20/12 Q1024
 
LEIB - Ibiza/Es Codola, Spain
Distance from station: OSO 165km
Actualización: 24/10/2017 13:00
Despejado
Despejado
 Viento del SSO
Viento: SSO 11 km/h
Temperatura: 22°C
Rocío: 17°C
Humedad: 73%
Barómetro: 1025 hPa
Resumen: Despejado
Visibility: greater than 10 km
2017/10/24 11:00 LEIB 241100Z 21006KT 160V230 CAVOK 22/17 Q1025 NOSIG
LEBL - Barcelona Airpor, Spain
Distance from station: NNO 225km
Actualización: 24/10/2017 13:00
Despejado
Despejado
 Viento del O
Viento: O 4 km/h
Temperatura: 21°C
Rocío: 9°C
Humedad: 46%
Barómetro: 1024 hPa
Resumen: Despejado
Visibility: greater than 10 km
2017/10/24 11:00 LEBL 241100Z 27002KT CAVOK 21/09 Q1024 NOSIG
 
LEVC - Valencia (civ/Mi, Spain
Distance from station: NO 188km
Actualización: 24/10/2017 13:00
Despejado
Despejado
 Viento del varies
Viento: varies 2 km/h
Temperatura: 26°C
Rocío: 4°C
Humedad: 24%
Barómetro: 1024 hPa
Resumen: Despejado
Visibility: greater than 10 km
2017/10/24 11:00 LEVC 241100Z VRB01KT CAVOK 26/04 Q1024 NOSIG
LEGE - Gerona/Costa Bra, Spain
Distance from station: N 276km
Actualización: 24/10/2017 13:00
Despejado
Despejado
 Viento del varies
Viento: varies 2 km/h
Temperatura: 21°C
Rocío: 10°C
Humedad: 50%
Barómetro: 1024 hPa
Resumen: Despejado
Visibility: greater than 10 km
2017/10/24 11:00 LEGE 241100Z VRB01KT CAVOK 21/10 Q1024
 
LEAL - Alicante/El Alte, Spain
Distance from station: OSO 344km
Actualización: 24/10/2017 13:00
Despejado
Despejado
 Viento del varies
Viento: varies 4 km/h
Temperatura: 24°C
Rocío: 13°C
Humedad: 50%
Barómetro: 1025 hPa
Resumen: Despejado
Visibility: greater than 10 km
2017/10/24 11:00 LEAL 241100Z VRB02KT CAVOK 24/13 Q1025 NOSIG
LEAM - Almeria Airport, Spain
Distance from station: SSO 56km
Actualización: 24/10/2017 13:00
Despejado
Despejado
 Viento del E
Viento: E 15 km/h
Temperatura: 26°C
Rocío: 12°C
Humedad: 42%
Barómetro: 1024 hPa
Resumen: Despejado
Visibility: greater than 10 km
2017/10/24 11:00 LEAM 241100Z 09008KT 060V130 CAVOK 26/12 Q1024
 
LEZG - Zaragoza (mil/Ci, Spain
Distance from station: NO 431km
Actualización: 24/10/2017 13:00
Despejado
Despejado
 Viento del ONO
Viento: ONO 6 km/h
Temperatura: 21°C
Rocío: 2°C
Humedad: 29%
Barómetro: 1025 hPa
Resumen: Despejado
Visibility: greater than 10 km
2017/10/24 11:00 LEZG 241100Z 30003KT 240V020 CAVOK 21/02 Q1025
LEMD - Madrid/Barajas, Spain
Distance from station: ONO 234km
Actualización: 24/10/2017 13:00
Despejado
Despejado
 Viento del varies
Viento: varies 4 km/h
Temperatura: 20°C
Rocío: 6°C
Humedad: 40%
Barómetro: 1026 hPa
Resumen: Despejado
Visibility: greater than 10 km
2017/10/24 11:00 LEMD 241100Z VRB02KT CAVOK 20/06 Q1026 NOSIG
 
LEGR - Granada Airport, Spain
Distance from station: OSO 62km
Actualización: 24/10/2017 13:00
Despejado
Despejado
 Viento del ENE
Viento: ENE 7 km/h
Temperatura: 22°C
Rocío: 9°C
Humedad: 44%
Barómetro: 1025 hPa
Resumen: Despejado
Visibility: greater than 10 km
2017/10/24 11:00 LEGR 241100Z 07004KT 020V110 CAVOK 22/09 Q1025
LEMG - Malaga (civ/Mil), Spain
Distance from station: OSO 227km
Actualización: 24/10/2017 13:00
Few Clouds
Few Clouds
 Viento del ESE
Viento: ESE 15 km/h
Temperatura: 22°C
Rocío: 16°C
Humedad: 69%
Barómetro: 1025 hPa
Clouds: Few Clouds
Visibility: 10 km
Cloud details: Few Clouds 549 m
2017/10/24 11:00 LEMG 241100Z 11008KT 070V140 9999 FEW018 22/16 Q1025 NOSIG
 
LEZL - Sevilla (civ/Mil, Spain
Distance from station: S 318km
Actualización: 24/10/2017 13:00
Despejado
Despejado
 Viento del E
Viento: E 15 km/h
Temperatura: 25°C
Rocío: 13°C
Humedad: 47%
Barómetro: 1022 hPa
Resumen: Despejado
Visibility: greater than 10 km
2017/10/24 11:00 LEZL 241100Z 08008KT 060V120 CAVOK 25/13 Q1022 NOSIG
LEVT - Vitoria, Spain
Distance from station: NO 226km
Actualización: 24/10/2017 13:00
Despejado
Despejado
 Viento del OSO
Viento: OSO 2 km/h
Temperatura: 16°C
Rocío: 6°C
Humedad: 52%
Barómetro: 1025 hPa
Resumen: Despejado
Visibility: greater than 10 km
2017/10/24 11:00 LEVT 241100Z 25001KT CAVOK 16/06 Q1025
 
LEBB - Bilbao/Sondica, Spain
Distance from station: NNO 235km
Actualización: 24/10/2017 13:00
Despejado
Despejado
 Viento del varies
Viento: varies 4 km/h
Temperatura: 22°C
Rocío: 10°C
Humedad: 47%
Barómetro: 1023 hPa
Resumen: Despejado
Visibility: greater than 10 km
2017/10/24 11:00 LEBB 241100Z VRB02KT CAVOK 22/10 Q1023 NOSIG
LESO - San Sebastian/Fu, Spain
Distance from station: N 231km
Actualización: 24/10/2017 13:00
Despejado
Despejado
 Viento del varies
Viento: varies 2 km/h
Temperatura: 20°C
Rocío: 7°C
Humedad: 43%
Barómetro: 1023 hPa
Resumen: Despejado
Visibility: greater than 10 km
2017/10/24 11:00 LESO 241100Z VRB01KT CAVOK 20/07 Q1023
 
LEVD - Valladolid(Mil/C, Spain
Distance from station: ONO 239km
Actualización: 24/10/2017 13:00
Despejado
Despejado
 Viento del varies
Viento: varies 2 km/h
Temperatura: 19°C
Rocío: 1°C
Humedad: 30%
Barómetro: 1026 hPa
Resumen: Despejado
Visibility: greater than 10 km
2017/10/24 11:00 LEVD 241100Z VRB01KT CAVOK 19/01 Q1026
LESA - Salamanca (civ/M, Spain
Distance from station: ONO 349km
Actualización: 24/10/2017 13:00
Despejado
Despejado
 Viento del calm
Viento: Calma
Temperatura: 20°C
Rocío: 3°C
Humedad: 33%
Barómetro: 1026 hPa
Resumen: Despejado
Visibility: greater than 10 km
2017/10/24 11:00 LESA 241100Z 00000KT CAVOK 20/03 Q1026
 
LEXJ - Santander/Paraya, Spain
Distance from station: NNO 247km
Actualización: 24/10/2017 13:00
Despejado
Despejado
 Viento del calm
Viento: Calma
Temperatura: 18°C
Rocío: 11°C
Humedad: 64%
Barómetro: 1022 hPa
Resumen: Despejado
Visibility: greater than 10 km
2017/10/24 11:00 LEXJ 241100Z 00000KT CAVOK 18/11 Q1022
LEAS - Asturias/Aviles, Spain
Distance from station: NO 214km
Actualización: 24/10/2017 13:00
Despejado
Despejado
 Viento del calm
Viento: Calma
Temperatura: 21°C
Rocío: 8°C
Humedad: 43%
Barómetro: 1023 hPa
Resumen: Despejado
Visibility: greater than 10 km
2017/10/24 11:00 LEAS 241100Z 00000KT CAVOK 21/08 Q1023 NOSIG
 
LECO - La Coruna/Alvedr, Spain
Distance from station: ONO 222km
Actualización: 24/10/2017 13:00
Despejado
Despejado
 Viento del S
Viento: S 6 km/h
Temperatura: 22°C
Rocío: 10°C
Humedad: 47%
Barómetro: 1023 hPa
Resumen: Despejado
Visibility: greater than 10 km
2017/10/24 11:00 LECO 241100Z 17003KT 120V230 CAVOK 22/10 Q1023 NOSIG
LEVX - Vigo/Peinador, Spain
Distance from station: O 214km
Actualización: 24/10/2017 13:00
Despejado
Despejado
 Viento del SSO
Viento: SSO 15 km/h
Temperatura: 21°C
Rocío: 9°C
Humedad: 46%
Barómetro: 1024 hPa
Resumen: Despejado
Visibility: greater than 10 km
2017/10/24 11:00 LEVX 241100Z 20008KT 150V230 CAVOK 21/09 Q1024 NOSIG